createdAt,value
2018-01-20T00:00:08.128Z,43
2018-01-20T00:15:07.767Z,44
2018-01-20T00:30:36.574Z,43
2018-01-20T00:45:05.018Z,44
2018-01-20T01:00:05.459Z,43
2018-01-20T01:15:05.508Z,44
2018-01-20T01:30:05.264Z,45
2018-01-20T01:45:04.699Z,44
2018-01-20T02:00:11.954Z,44
2018-01-20T02:15:07.675Z,44
2018-01-20T02:30:04.792Z,44
2018-01-20T02:45:05.231Z,43
2018-01-20T03:00:04.816Z,44
2018-01-20T03:15:05.232Z,43
2018-01-20T03:30:04.490Z,43
2018-01-20T03:45:05.008Z,43
2018-01-20T04:00:04.387Z,43
2018-01-20T04:15:04.840Z,43
2018-01-20T04:30:04.860Z,43
2018-01-20T04:45:05.176Z,44
2018-01-20T05:00:05.065Z,43
2018-01-20T05:15:05.644Z,43
2018-01-20T05:30:07.656Z,44
2018-01-20T05:45:06.013Z,43
2018-01-20T06:00:11.086Z,44
2018-01-20T06:15:04.443Z,43
2018-01-20T06:30:06.179Z,44
2018-01-20T06:45:06.315Z,44
2018-01-20T07:00:04.768Z,45
2018-01-20T07:15:05.192Z,44
2018-01-20T07:30:04.871Z,45
2018-01-20T07:45:08.997Z,45
2018-01-20T08:00:05.878Z,45
2018-01-20T08:15:05.804Z,44
2018-01-20T08:30:05.100Z,45
2018-01-20T08:45:06.102Z,44
2018-01-20T09:00:06.333Z,45
2018-01-20T09:15:06.400Z,44
2018-01-20T09:30:04.976Z,45
2018-01-20T09:45:04.453Z,46
2018-01-20T10:00:05.504Z,48
2018-01-20T10:15:07.505Z,46
2018-01-20T10:30:05.339Z,46
2018-01-20T10:45:04.744Z,47
2018-01-20T11:00:07.740Z,47
2018-01-20T11:15:09.228Z,49
2018-01-20T11:30:05.395Z,49
2018-01-20T11:45:04.318Z,50
2018-01-20T12:00:08.278Z,48
2018-01-20T12:15:05.783Z,47
2018-01-20T12:30:04.721Z,47
2018-01-20T12:45:05.579Z,47
2018-01-20T13:00:05.739Z,48
2018-01-20T13:15:08.232Z,49
2018-01-20T13:30:04.412Z,47
2018-01-20T13:45:05.593Z,48
2018-01-20T14:00:07.595Z,48
2018-01-20T14:15:04.671Z,47
2018-01-20T14:30:11.197Z,47
2018-01-20T14:45:06.597Z,47
2018-01-20T15:00:05.019Z,47
2018-01-20T15:15:11.559Z,48
2018-01-20T15:30:05.559Z,47
2018-01-20T15:45:04.995Z,47
2018-01-20T16:00:04.343Z,47
2018-01-20T16:15:04.729Z,47
2018-01-20T16:30:04.831Z,47
2018-01-20T16:45:04.654Z,47
2018-01-20T17:00:05.018Z,46
2018-01-20T17:15:04.955Z,45
2018-01-20T17:30:04.553Z,45
2018-01-20T17:45:05.050Z,45
2018-01-20T18:00:36.937Z,46
2018-01-20T18:15:04.414Z,45
2018-01-20T18:30:04.714Z,45
2018-01-20T18:45:05.212Z,45
2018-01-20T19:00:04.671Z,46
2018-01-20T19:15:04.551Z,45
2018-01-20T19:30:04.685Z,46
2018-01-20T19:45:05.080Z,46
2018-01-20T20:00:04.562Z,45
2018-01-20T20:15:04.904Z,45
2018-01-20T20:30:05.126Z,46
2018-01-20T20:45:05.619Z,45
2018-01-20T21:00:06.047Z,46
2018-01-20T21:15:04.443Z,46
2018-01-20T21:30:05.515Z,46
2018-01-20T21:45:05.368Z,45
2018-01-20T22:00:04.894Z,47
2018-01-20T22:15:08.183Z,46
2018-01-20T22:30:04.696Z,46
2018-01-20T22:45:04.860Z,47
2018-01-20T23:00:04.947Z,46
2018-01-20T23:15:05.356Z,45
2018-01-20T23:30:04.451Z,45
2018-01-20T23:45:04.677Z,46
